< < Back
Terminal Aerodrome Forecast


Current Version              Previous Versions:   1  2  3  4  5  6  7  8  9  

Terminal Aerodrome Forecast

417
FTUS42 KGSP 242327
TAFAND
TAF
KAND 242327Z 2500/2524 26007KT P6SM SKC
     FM250900 25004KT P6SM FEW250
     FM251600 22006KT P6SM SCT200=



Latest METAR

102
SAUS70 KWBC 251900
MTRAND
METAR KAND 251756Z AUTO 24008KT 10SM CLR 12/01 A2986 RMK AO2 SLP109
T01220006 10122 21011 58026


USA.gov is the U.S. government's official web portal to all federal, state and local government web resources and services.